This is the latest recevied weather packets stored in our database for station/object N5XL. If no packets are shown the sender has not sent any weather packets the latest 10 day(s).
| Time | Temp. | Humidity | Pressure | Rain* | Wind** | Luminosity | Snow |
|---|---|---|---|---|---|---|---|
| 1777847223 | 36.67° C | 12% | 1007.8 hPa | 0 mm | - | 566 W/m² | - |
| 1777846143 | 36.67° C | 14% | 1008.1 hPa | 0 mm | - | 651 W/m² | - |
| 1777841103 | 35° C | 17% | 1009.5 hPa | 0 mm | - | 822 W/m² | - |
| 1777837503 | 35° C | 19% | 1010.4 hPa | 0 mm | - | 878 W/m² | - |
| 1777835883 | 33.89° C | 20% | 1010.6 hPa | 0 mm | - | 785 W/m² | - |
| 1777835343 | 33.89° C | 20% | 1010.9 hPa | 0 mm | - | 512 W/m² | - |
| 1777834443 | 32.78° C | 21% | 1011.3 hPa | 0 mm | - | 618 W/m² | - |
| 1777833363 | 32.22° C | 20% | 1011.4 hPa | 0 mm | - | 540 W/m² | - |
| 1777822023 | 26.11° C | 34% | 1012.2 hPa | 0 mm | - | 378 W/m² | - |
| 1777818424 | 23.33° C | 36% | 1012.1 hPa | 0 mm | - | 116 W/m² | - |
| 1777814823 | 22.22° C | 35% | 1011.7 hPa | 0 mm | - | 31 W/m² | - |
| 1777812843 | 22.22° C | 33% | 1011 hPa | 0 mm | - | 2 W/m² | - |
| 1777811764 | 22.22° C | 35% | 1010.9 hPa | 0 mm | - | 0 W/m² | - |
| 1777811223 | 22.22° C | 32% | 1011.1 hPa | 0 mm | - | 0 W/m² | - |
| 1777810143 | 22.78° C | 32% | 1010.9 hPa | 0 mm | - | 0 W/m² | - |
| 1777809244 | 22.78° C | 32% | 1011 hPa | 0 mm | - | 0 W/m² | - |
| 1777806543 | 22.22° C | 32% | 1011.2 hPa | 0 mm | - | 0 W/m² | - |
| 1777801504 | 22.22° C | 29% | 1010.9 hPa | 0 mm | - | 0 W/m² | - |
| 1777799883 | 22.78° C | 28% | 1011.1 hPa | 0 mm | - | 0 W/m² | - |
| 1777798804 | 22.78° C | 27% | 1011.2 hPa | 0 mm | - | 0 W/m² | - |
| 1777797364 | 23.33° C | 26% | 1011.2 hPa | 0 mm | - | 0 W/m² | - |
| 1777795204 | 23.89° C | 26% | 1011.3 hPa | 0 mm | - | 0 W/m² | - |
| 1777791604 | 24.44° C | 26% | 1011.3 hPa | 0 mm | - | 0 W/m² | - |
| 1777790724 | 24.44° C | 25% | 1011.5 hPa | 0 mm | - | 0 W/m² | - |
| 1777790163 | 24.44° C | 25% | 1011.1 hPa | 0 mm | - | 0 W/m² | - |
* Rain latest hour (hover to see other rain measurements)
** Current wind speed in m/s (hover to see current wind gust speed)